Flight Track Log - Related Links

Times and Time Zones

All times are in EDT time to prevent confusion due to time zone crossing. See the N650GF flight status page for this flight to view local times or setup timezone preferences in your user account.

Time Position Orientation Groundspeed Altitude Reporting Facility
EDT Latitude Longitude Course Direction KTS MPH feet Rate Location/Type
Sat 01:27:36 AM 40.6417 -112.2969 189° South 331 381 20,000  Level Salt Lake Center
Sat 01:28:37 AM 40.5489 -112.3153 189° South 337 388 21,900 1,869 Climbing Salt Lake Center
Sat 01:29:38 AM 40.4517 -112.3369 190° South 354 407 23,800 1,820 Climbing Salt Lake Center
Sat 01:30:39 AM 40.3528 -112.3556 188° South 356 410 25,600 1,091 Climbing Salt Lake Center
Sat 01:31:39 AM 40.2586 -112.4136 205° Southwest 381 438 26,000 198 Climbing Salt Lake Center
Sat 01:32:40 AM 40.1528 -112.4719 203° Southwest 421 484 26,000  Level Salt Lake Center
Sat 01:33:41 AM 40.0344 -112.5036 192° South 435 501 26,000  Level Salt Lake Center
Sat 01:34:42 AM 39.9131 -112.5331 191° South 445 512 26,000  Level Salt Lake Center
Sat 01:35:42 AM 39.7933 -112.5661 192° South 444 511 26,000  Level Salt Lake Center
Sat 01:36:43 AM 39.6708 -112.5964 191° South 445 512 26,000  Level Salt Lake Center
Sat 01:37:44 AM 39.5494 -112.6278 191° South 444 511 26,000  Level Salt Lake Center
Sat 01:38:45 AM 39.4203 -112.6586 190° South 444 511 26,000  Level Salt Lake Center
Sat 01:39:45 AM 39.2983 -112.6894 191° South 444 511 26,000  Level Salt Lake Center
Sat 01:40:46 AM 39.1772 -112.7203 191° South 444 511 26,000  Level Salt Lake Center
Sat 01:41:47 AM 39.0556 -112.7511 191° South 444 511 26,000  Level Salt Lake Center
Sat 01:42:47 AM 38.9339 -112.7828 191° South 444 511 26,000  Level Salt Lake Center
Sat 01:43:48 AM 38.8142 -112.8128 191° South 444 511 26,000  Level Salt Lake Center
Sat 01:44:48 AM 38.6939 -112.8433 191° South 443 510 26,000  Level Salt Lake Center
Sat 01:45:49 AM 38.5494 -112.8806 191° South 443 510 26,000  Level Salt Lake Center
Sat 01:46:50 AM 38.4292 -112.9108 191° South 442 509 26,000  Level Salt Lake Center
Sat 01:47:51 AM 38.3083 -112.9400 191° South 442 509 26,000 -992 Level Salt Lake Center
Sat 01:48:51 AM 38.1911 -112.9692 191° South 435 501 24,000 -2,250 Descending Salt Lake Center
Sat 01:49:51 AM 38.0747 -112.9983 191° South 432 497 21,500 -2,430 Descending Salt Lake Center
Sat 01:50:52 AM 37.9611 -113.0264 191° South 428 493 19,100 -2,331 Descending Salt Lake Center
Sat 01:51:52 AM 37.8508 -113.0528 191° South 418 481 16,800 -1,488 Descending Salt Lake Center
Sat 01:52:53 AM 37.7542 -113.0800 193° South 376 433 16,100 -446 Descending Salt Lake Center
Sat 01:53:53 AM 37.6664 -113.1167 198° South 345 397 15,900 -556 Descending Salt Lake Center
Sat 01:54:41 AM 37.5983 -113.1447 198° South 332 382 15,100 -991 Descending Los Angeles Center
Sat 01:55:42 AM 37.5161 -113.1775 198° South 323 372 14,100 -689 Descending Los Angeles Center
Sat 01:56:43 AM 37.4500 -113.2094 201° Southwest 278 320 13,700 -1,230 Descending Los Angeles Center
Sat 01:57:44 AM 37.3889 -113.2550 211° Southwest 259 298 11,600 -2,115 Descending Los Angeles Center
Sat 01:58:45 AM 37.3153 -113.3097 211° Southwest 259 298 9,400 -1,869 Descending Los Angeles Center
Sat 01:59:46 AM 37.2603 -113.3503 210° Southwest 240 276 7,800 -1,377 Descending Los Angeles Center
Sat 02:00:47 AM 37.2083 -113.3889 211° Southwest 226 260 6,600 -1,180 Descending Los Angeles Center
Sat 02:01:48 AM 37.1525 -113.4297 210° Southwest 226 260 5,400 -1,180 Descending Los Angeles Center

Login

Don't have an account? Register now (free) for customized features, flight alerts, and more!